createdAt,value
2019-01-13T22:51:28.071Z,7.96
2019-01-13T22:52:28.015Z,8.00
2019-01-13T22:53:28.751Z,8.02
2019-01-13T22:55:40.175Z,8.04
2019-01-13T22:56:40.388Z,7.96
2019-01-13T22:57:39.767Z,7.97
2019-01-13T22:58:39.748Z,7.93
2019-01-13T22:59:39.746Z,7.94
2019-01-13T23:00:39.760Z,7.96
2019-01-13T23:01:39.814Z,7.96
2019-01-13T23:02:39.739Z,7.97
2019-01-13T23:03:40.020Z,7.93
2019-01-13T23:04:39.995Z,7.90
2019-01-13T23:05:39.701Z,7.96
2019-01-13T23:06:39.676Z,7.94
2019-01-13T23:07:39.650Z,7.92
2019-01-13T23:08:39.636Z,7.90
2019-01-13T23:09:39.626Z,7.82
2019-01-13T23:10:39.627Z,7.90
2019-01-13T23:11:39.606Z,7.85
2019-01-13T23:12:39.846Z,7.77
2019-01-13T23:13:39.584Z,7.72
2019-01-13T23:14:39.574Z,7.82
2019-01-13T23:15:39.632Z,7.63
2019-01-13T23:16:39.553Z,7.66
2019-01-13T23:17:39.577Z,7.69
2019-01-13T23:18:39.539Z,7.66
2019-01-13T23:19:39.518Z,7.71
2019-01-13T23:20:39.526Z,7.59
2019-01-13T23:21:39.588Z,7.69
2019-01-13T23:22:39.495Z,7.72
2019-01-13T23:23:39.490Z,7.62
2019-01-13T23:24:39.470Z,7.66
2019-01-13T23:25:39.455Z,7.71
2019-01-13T23:26:39.469Z,7.72
2019-01-13T23:27:39.435Z,7.72
2019-01-13T23:28:39.525Z,7.71
2019-01-13T23:29:39.438Z,7.63
2019-01-13T23:30:39.400Z,7.63
2019-01-13T23:31:39.397Z,7.60
2019-01-13T23:32:39.412Z,7.60
2019-01-13T23:33:39.367Z,7.50
2019-01-13T23:34:39.359Z,7.60
2019-01-13T23:35:39.345Z,7.58
2019-01-13T23:39:27.203Z,7.53
2019-01-13T23:40:23.149Z,7.50
2019-01-13T23:41:23.254Z,7.44
2019-01-13T23:42:23.106Z,7.49
2019-01-13T23:43:23.038Z,7.44
2019-01-13T23:44:33.068Z,7.41
2019-01-13T23:45:23.053Z,7.42
2019-01-13T23:49:05.369Z,7.40
2019-01-13T23:50:05.358Z,7.40
2019-01-13T23:51:05.104Z,7.37
2019-01-13T23:52:14.122Z,7.45
2019-01-13T23:53:05.278Z,7.42
2019-01-13T23:54:05.983Z,7.45
2019-01-13T23:55:30.519Z,7.47
2019-01-13T23:56:05.247Z,7.50
2019-01-13T23:58:21.015Z,7.44
2019-01-13T23:59:20.670Z,7.50
